sensor_id;sensor_type;location;lat;lon;timestamp;pressure;altitude;pressure_sealevel;temperature;humidity
4012;BME280;2020;48.682;9.024;2023-02-21T00:02:30;96916.28;;;4.08;66.11
4012;BME280;2020;48.682;9.024;2023-02-21T00:05:14;96914.00;;;4.17;67.90
4012;BME280;2020;48.682;9.024;2023-02-21T00:07:58;96910.28;;;4.21;67.85
4012;BME280;2020;48.682;9.024;2023-02-21T00:10:42;96912.16;;;3.93;68.25
4012;BME280;2020;48.682;9.024;2023-02-21T00:13:26;96914.94;;;3.90;67.80
4012;BME280;2020;48.682;9.024;2023-02-21T00:16:15;96904.75;;;3.75;67.88
4012;BME280;2020;48.682;9.024;2023-02-21T00:18:58;96910.72;;;3.89;68.80
4012;BME280;2020;48.682;9.024;2023-02-21T00:21:42;96906.19;;;4.05;68.06
4012;BME280;2020;48.682;9.024;2023-02-21T00:24:26;96897.72;;;3.90;67.81
4012;BME280;2020;48.682;9.024;2023-02-21T00:27:10;96894.03;;;4.07;68.02
4012;BME280;2020;48.682;9.024;2023-02-21T00:29:54;96897.94;;;4.00;67.57
4012;BME280;2020;48.682;9.024;2023-02-21T00:32:38;96890.13;;;3.89;68.26
4012;BME280;2020;48.682;9.024;2023-02-21T00:35:22;96895.16;;;3.77;67.44
4012;BME280;2020;48.682;9.024;2023-02-21T00:38:05;96892.59;;;3.77;69.13
4012;BME280;2020;48.682;9.024;2023-02-21T00:40:49;96897.81;;;3.76;69.22
4012;BME280;2020;48.682;9.024;2023-02-21T00:43:34;96893.41;;;3.65;68.80
4012;BME280;2020;48.682;9.024;2023-02-21T00:46:19;96896.06;;;3.63;68.83
4012;BME280;2020;48.682;9.024;2023-02-21T00:49:04;96893.59;;;3.62;68.19
4012;BME280;2020;48.682;9.024;2023-02-21T00:51:48;96885.78;;;3.50;68.83
4012;BME280;2020;48.682;9.024;2023-02-21T00:54:33;96887.81;;;3.45;68.46
4012;BME280;2020;48.682;9.024;2023-02-21T00:57:16;96898.75;;;3.62;70.22
4012;BME280;2020;48.682;9.024;2023-02-21T01:00:01;96896.66;;;3.41;68.54
4012;BME280;2020;48.682;9.024;2023-02-21T01:02:44;96889.22;;;3.36;68.70
4012;BME280;2020;48.682;9.024;2023-02-21T01:05:28;96890.59;;;3.42;70.08
4012;BME280;2020;48.682;9.024;2023-02-21T01:08:13;96885.91;;;3.21;69.33
4012;BME280;2020;48.682;9.024;2023-02-21T01:10:57;96887.50;;;3.37;69.96
4012;BME280;2020;48.682;9.024;2023-02-21T01:13:41;96892.69;;;3.22;70.10
4012;BME280;2020;48.682;9.024;2023-02-21T01:16:28;96885.03;;;3.08;69.57
4012;BME280;2020;48.682;9.024;2023-02-21T01:19:12;96877.19;;;2.97;69.73
4012;BME280;2020;48.682;9.024;2023-02-21T01:21:56;96885.63;;;2.99;71.90
4012;BME280;2020;48.682;9.024;2023-02-21T01:24:39;96880.69;;;2.96;71.47
4012;BME280;2020;48.682;9.024;2023-02-21T01:27:23;96882.13;;;3.00;70.81
4012;BME280;2020;48.682;9.024;2023-02-21T01:30:07;96880.88;;;2.92;72.22
4012;BME280;2020;48.682;9.024;2023-02-21T01:32:51;96878.44;;;3.04;71.27
4012;BME280;2020;48.682;9.024;2023-02-21T01:35:35;96880.88;;;2.92;71.56
4012;BME280;2020;48.682;9.024;2023-02-21T01:38:19;96877.00;;;3.00;72.30
4012;BME280;2020;48.682;9.024;2023-02-21T01:41:03;96874.97;;;2.63;72.73
4012;BME280;2020;48.682;9.024;2023-02-21T01:44:27;96867.88;;;2.81;73.05
4012;BME280;2020;48.682;9.024;2023-02-21T01:47:11;96876.34;;;2.69;72.72
4012;BME280;2020;48.682;9.024;2023-02-21T01:49:54;96871.38;;;2.80;71.81
4012;BME280;2020;48.682;9.024;2023-02-21T01:52:39;96873.41;;;2.75;72.44
4012;BME280;2020;48.682;9.024;2023-02-21T01:55:22;96865.69;;;2.75;72.57
4012;BME280;2020;48.682;9.024;2023-02-21T01:58:06;96866.84;;;2.56;73.04
4012;BME280;2020;48.682;9.024;2023-02-21T02:00:50;96872.91;;;2.55;73.30
4012;BME280;2020;48.682;9.024;2023-02-21T02:03:36;96868.13;;;2.63;72.74
4012;BME280;2020;48.682;9.024;2023-02-21T02:06:21;96865.16;;;2.70;72.70
4012;BME280;2020;48.682;9.024;2023-02-21T02:09:16;96858.38;;;2.69;72.13
4012;BME280;2020;48.682;9.024;2023-02-21T02:15:10;96860.00;;;2.70;73.52
4012;BME280;2020;48.682;9.024;2023-02-21T02:18:22;96860.25;;;2.52;73.08
4012;BME280;2020;48.682;9.024;2023-02-21T02:21:19;96859.34;;;2.39;73.46
4012;BME280;2020;48.682;9.024;2023-02-21T02:29:38;96846.50;;;2.39;73.06
4012;BME280;2020;48.682;9.024;2023-02-21T02:38:04;96849.97;;;2.52;73.45
4012;BME280;2020;48.682;9.024;2023-02-21T02:43:30;96847.00;;;2.58;73.49
4012;BME280;2020;48.682;9.024;2023-02-21T02:46:08;96841.91;;;2.44;73.56
4012;BME280;2020;48.682;9.024;2023-02-21T02:48:42;96839.91;;;2.34;73.49
4012;BME280;2020;48.682;9.024;2023-02-21T02:51:12;96829.84;;;2.31;72.40
4012;BME280;2020;48.682;9.024;2023-02-21T02:53:38;96820.88;;;2.10;75.21
4012;BME280;2020;48.682;9.024;2023-02-21T02:56:06;96823.63;;;2.21;74.27
4012;BME280;2020;48.682;9.024;2023-02-21T02:58:41;96830.75;;;2.30;73.94
4012;BME280;2020;48.682;9.024;2023-02-21T03:04:40;96825.03;;;2.40;73.52
4012;BME280;2020;48.682;9.024;2023-02-21T03:07:03;96826.53;;;2.29;75.15
4012;BME280;2020;48.682;9.024;2023-02-21T03:09:46;96829.00;;;2.31;75.01
4012;BME280;2020;48.682;9.024;2023-02-21T03:12:19;96822.88;;;2.19;74.90
4012;BME280;2020;48.682;9.024;2023-02-21T03:14:51;96830.84;;;2.29;74.54
4012;BME280;2020;48.682;9.024;2023-02-21T03:17:23;96837.53;;;2.31;74.40
4012;BME280;2020;48.682;9.024;2023-02-21T03:19:52;96831.84;;;2.26;74.83
4012;BME280;2020;48.682;9.024;2023-02-21T03:22:21;96831.97;;;2.10;74.97
4012;BME280;2020;48.682;9.024;2023-02-21T03:24:48;96832.44;;;2.17;74.08
4012;BME280;2020;48.682;9.024;2023-02-21T03:27:15;96828.94;;;2.18;75.26
4012;BME280;2020;48.682;9.024;2023-02-21T03:29:42;96824.72;;;2.17;74.76
4012;BME280;2020;48.682;9.024;2023-02-21T03:32:12;96833.53;;;2.13;76.05
4012;BME280;2020;48.682;9.024;2023-02-21T03:34:41;96832.25;;;2.20;74.99
4012;BME280;2020;48.682;9.024;2023-02-21T03:37:10;96828.97;;;2.03;74.48
4012;BME280;2020;48.682;9.024;2023-02-21T03:39:41;96829.56;;;2.22;74.33
4012;BME280;2020;48.682;9.024;2023-02-21T03:42:07;96831.78;;;2.13;75.18
4012;BME280;2020;48.682;9.024;2023-02-21T03:44:32;96825.91;;;2.11;74.54
4012;BME280;2020;48.682;9.024;2023-02-21T03:46:57;96826.19;;;2.07;74.50
4012;BME280;2020;48.682;9.024;2023-02-21T03:49:23;96826.41;;;2.03;75.54
4012;BME280;2020;48.682;9.024;2023-02-21T03:51:48;96825.94;;;1.97;75.14
4012;BME280;2020;48.682;9.024;2023-02-21T03:54:13;96823.25;;;1.98;74.58
4012;BME280;2020;48.682;9.024;2023-02-21T03:56:38;96829.47;;;1.94;75.56
4012;BME280;2020;48.682;9.024;2023-02-21T03:59:04;96824.34;;;1.94;75.08
4012;BME280;2020;48.682;9.024;2023-02-21T04:01:29;96826.41;;;2.03;74.92
4012;BME280;2020;48.682;9.024;2023-02-21T04:03:54;96819.88;;;1.83;75.97
4012;BME280;2020;48.682;9.024;2023-02-21T04:06:19;96830.97;;;1.84;74.92
4012;BME280;2020;48.682;9.024;2023-02-21T04:08:45;96826.94;;;1.65;74.58
4012;BME280;2020;48.682;9.024;2023-02-21T04:11:10;96822.34;;;1.70;74.38
4012;BME280;2020;48.682;9.024;2023-02-21T04:13:35;96825.81;;;1.69;74.84
4012;BME280;2020;48.682;9.024;2023-02-21T04:16:01;96822.09;;;1.75;74.01
4012;BME280;2020;48.682;9.024;2023-02-21T04:18:26;96821.97;;;1.77;75.97
4012;BME280;2020;48.682;9.024;2023-02-21T04:20:51;96825.56;;;1.74;74.90
4012;BME280;2020;48.682;9.024;2023-02-21T04:23:20;96826.75;;;1.68;74.27
4012;BME280;2020;48.682;9.024;2023-02-21T04:25:47;96820.50;;;1.58;75.83
4012;BME280;2020;48.682;9.024;2023-02-21T04:28:12;96818.84;;;1.57;76.14
4012;BME280;2020;48.682;9.024;2023-02-21T04:30:38;96821.78;;;1.65;75.38
4012;BME280;2020;48.682;9.024;2023-02-21T04:33:03;96813.53;;;1.60;76.00
4012;BME280;2020;48.682;9.024;2023-02-21T04:35:29;96818.84;;;1.57;75.92
4012;BME280;2020;48.682;9.024;2023-02-21T04:37:54;96822.34;;;1.56;75.38
4012;BME280;2020;48.682;9.024;2023-02-21T04:40:19;96831.59;;;1.58;77.26
4012;BME280;2020;48.682;9.024;2023-02-21T04:42:45;96822.69;;;1.50;75.90
4012;BME280;2020;48.682;9.024;2023-02-21T04:45:10;96823.06;;;1.43;76.68
4012;BME280;2020;48.682;9.024;2023-02-21T04:47:36;96816.59;;;1.52;76.58
4012;BME280;2020;48.682;9.024;2023-02-21T04:50:02;96814.81;;;1.38;76.02
4012;BME280;2020;48.682;9.024;2023-02-21T04:52:27;96819.03;;;1.54;76.67
4012;BME280;2020;48.682;9.024;2023-02-21T04:54:52;96818.94;;;1.41;76.88
4012;BME280;2020;48.682;9.024;2023-02-21T04:57:18;96816.66;;;1.51;76.29
4012;BME280;2020;48.682;9.024;2023-02-21T04:59:43;96816.63;;;1.36;75.60
4012;BME280;2020;48.682;9.024;2023-02-21T05:02:09;96812.72;;;1.45;76.52
4012;BME280;2020;48.682;9.024;2023-02-21T05:04:35;96805.81;;;1.31;76.10
4012;BME280;2020;48.682;9.024;2023-02-21T05:07:01;96806.19;;;1.39;76.14
4012;BME280;2020;48.682;9.024;2023-02-21T05:09:26;96806.47;;;1.35;77.52
4012;BME280;2020;48.682;9.024;2023-02-21T05:11:51;96808.56;;;1.28;77.05
4012;BME280;2020;48.682;9.024;2023-02-21T05:14:17;96810.53;;;1.39;76.86
4012;BME280;2020;48.682;9.024;2023-02-21T05:16:43;96802.94;;;1.21;76.23
4012;BME280;2020;48.682;9.024;2023-02-21T05:19:09;96807.63;;;1.14;77.21
4012;BME280;2020;48.682;9.024;2023-02-21T05:21:35;96810.75;;;1.20;76.61
4012;BME280;2020;48.682;9.024;2023-02-21T05:24:03;96812.22;;;1.24;76.91
4012;BME280;2020;48.682;9.024;2023-02-21T05:26:33;96799.03;;;1.15;76.04
4012;BME280;2020;48.682;9.024;2023-02-21T05:28:58;96805.66;;;1.04;77.36
4012;BME280;2020;48.682;9.024;2023-02-21T05:31:24;96804.84;;;1.03;78.24
4012;BME280;2020;48.682;9.024;2023-02-21T05:33:49;96804.50;;;1.09;77.19
4012;BME280;2020;48.682;9.024;2023-02-21T05:36:14;96803.16;;;0.87;77.06
4012;BME280;2020;48.682;9.024;2023-02-21T05:38:47;96813.09;;;1.08;78.45
4012;BME280;2020;48.682;9.024;2023-02-21T05:41:13;96803.22;;;1.16;77.43
4012;BME280;2020;48.682;9.024;2023-02-21T05:43:39;96804.50;;;1.09;76.61
4012;BME280;2020;48.682;9.024;2023-02-21T05:46:06;96809.97;;;1.03;76.92
4012;BME280;2020;48.682;9.024;2023-02-21T05:48:31;96808.34;;;1.02;77.47
4012;BME280;2020;48.682;9.024;2023-02-21T05:50:57;96807.94;;;0.94;77.68
4012;BME280;2020;48.682;9.024;2023-02-21T05:53:22;96807.22;;;0.92;77.42
4012;BME280;2020;48.682;9.024;2023-02-21T05:55:47;96810.69;;;0.91;79.02
4012;BME280;2020;48.682;9.024;2023-02-21T05:58:12;96808.69;;;0.96;77.46
4012;BME280;2020;48.682;9.024;2023-02-21T06:00:38;96810.84;;;0.87;77.84
4012;BME280;2020;48.682;9.024;2023-02-21T06:03:03;96817.63;;;0.89;78.09
4012;BME280;2020;48.682;9.024;2023-02-21T06:05:28;96817.81;;;0.85;77.96
4012;BME280;2020;48.682;9.024;2023-02-21T06:07:53;96815.66;;;0.62;79.24
4012;BME280;2020;48.682;9.024;2023-02-21T06:10:19;96813.78;;;0.65;79.63
4012;BME280;2020;48.682;9.024;2023-02-21T06:12:44;96817.31;;;0.63;80.11
4012;BME280;2020;48.682;9.024;2023-02-21T06:15:09;96816.84;;;0.72;79.35
4012;BME280;2020;48.682;9.024;2023-02-21T06:17:37;96817.81;;;0.85;78.07
4012;BME280;2020;48.682;9.024;2023-02-21T06:20:04;96817.00;;;0.69;77.48
4012;BME280;2020;48.682;9.024;2023-02-21T06:22:29;96815.66;;;0.62;78.29
4012;BME280;2020;48.682;9.024;2023-02-21T06:24:54;96814.00;;;0.77;78.59
4012;BME280;2020;48.682;9.024;2023-02-21T06:27:20;96809.56;;;0.64;78.56
4012;BME280;2020;48.682;9.024;2023-02-21T06:29:45;96814.19;;;0.73;80.47
4012;BME280;2020;48.682;9.024;2023-02-21T06:32:10;96813.19;;;0.76;79.59
4012;BME280;2020;48.682;9.024;2023-02-21T06:34:35;96808.81;;;0.78;79.50
4012;BME280;2020;48.682;9.024;2023-02-21T06:37:01;96803.75;;;0.77;78.75
4012;BME280;2020;48.682;9.024;2023-02-21T06:39:26;96813.19;;;0.76;78.13
4012;BME280;2020;48.682;9.024;2023-02-21T06:41:51;96817.31;;;0.63;79.00
4012;BME280;2020;48.682;9.024;2023-02-21T06:44:17;96806.91;;;0.66;79.31
4012;BME280;2020;48.682;9.024;2023-02-21T06:46:42;96803.69;;;0.78;78.61
4012;BME280;2020;48.682;9.024;2023-02-21T06:49:08;96801.47;;;0.72;79.36
4012;BME280;2020;48.682;9.024;2023-02-21T06:51:35;96794.34;;;0.77;78.70
4012;BME280;2020;48.682;9.024;2023-02-21T06:54:00;96802.44;;;0.85;80.47
4012;BME280;2020;48.682;9.024;2023-02-21T06:56:26;96801.91;;;0.95;80.58
4012;BME280;2020;48.682;9.024;2023-02-21T06:58:52;96798.25;;;0.99;80.36
4012;BME280;2020;48.682;9.024;2023-02-21T07:01:17;96797.69;;;0.94;81.61
4012;BME280;2020;48.682;9.024;2023-02-21T07:03:43;96798.69;;;0.91;81.22
4012;BME280;2020;48.682;9.024;2023-02-21T07:06:09;96793.53;;;1.22;80.59
4012;BME280;2020;48.682;9.024;2023-02-21T07:08:34;96788.53;;;1.49;80.14
4012;BME280;2020;48.682;9.024;2023-02-21T07:11:00;96798.31;;;1.86;79.27
4012;BME280;2020;48.682;9.024;2023-02-21T07:13:25;96800.19;;;2.26;78.26
4012;BME280;2020;48.682;9.024;2023-02-21T07:15:50;96794.34;;;2.51;77.32
4012;BME280;2020;48.682;9.024;2023-02-21T07:18:15;96791.78;;;2.91;75.80
4012;BME280;2020;48.682;9.024;2023-02-21T07:20:41;96802.13;;;3.17;74.52
4012;BME280;2020;48.682;9.024;2023-02-21T07:23:06;96804.44;;;3.48;73.58
4012;BME280;2020;48.682;9.024;2023-02-21T07:25:31;96799.47;;;3.71;72.60
4012;BME280;2020;48.682;9.024;2023-02-21T07:27:56;96804.41;;;4.00;72.00
4012;BME280;2020;48.682;9.024;2023-02-21T07:30:21;96804.78;;;4.06;71.33
4012;BME280;2020;48.682;9.024;2023-02-21T07:32:47;96801.63;;;4.03;71.53
4012;BME280;2020;48.682;9.024;2023-02-21T07:35:12;96804.47;;;4.11;70.96
4012;BME280;2020;48.682;9.024;2023-02-21T07:37:38;96809.31;;;4.16;70.13
4012;BME280;2020;48.682;9.024;2023-02-21T07:40:04;96807.97;;;4.47;70.88
4012;BME280;2020;48.682;9.024;2023-02-21T07:42:31;96809.16;;;4.67;69.99
4012;BME280;2020;48.682;9.024;2023-02-21T07:44:57;96799.72;;;4.91;70.46
4012;BME280;2020;48.682;9.024;2023-02-21T07:47:23;96796.38;;;5.02;69.06
4012;BME280;2020;48.682;9.024;2023-02-21T07:49:49;96804.66;;;5.30;68.44
4012;BME280;2020;48.682;9.024;2023-02-21T07:52:15;96798.84;;;5.62;67.65
4012;BME280;2020;48.682;9.024;2023-02-21T07:54:41;96793.91;;;5.81;66.04
4012;BME280;2020;48.682;9.024;2023-02-21T07:57:06;96795.84;;;6.02;65.70
4012;BME280;2020;48.682;9.024;2023-02-21T07:59:31;96798.66;;;6.10;65.16
4012;BME280;2020;48.682;9.024;2023-02-21T08:01:57;96799.34;;;6.24;65.82
4012;BME280;2020;48.682;9.024;2023-02-21T08:04:22;96805.41;;;6.46;64.90
4012;BME280;2020;48.682;9.024;2023-02-21T08:06:48;96795.53;;;6.51;64.54
4012;BME280;2020;48.682;9.024;2023-02-21T08:09:14;96798.25;;;6.82;64.96
4012;BME280;2020;48.682;9.024;2023-02-21T08:11:39;96802.88;;;6.99;63.08
4012;BME280;2020;48.682;9.024;2023-02-21T08:14:05;96798.09;;;7.37;63.65
4012;BME280;2020;48.682;9.024;2023-02-21T08:16:30;96801.69;;;7.46;62.22
4012;BME280;2020;48.682;9.024;2023-02-21T08:18:56;96799.59;;;7.61;64.09
4012;BME280;2020;48.682;9.024;2023-02-21T08:21:21;96795.88;;;7.85;63.43
4012;BME280;2020;48.682;9.024;2023-02-21T08:23:46;96799.81;;;8.10;61.64
4012;BME280;2020;48.682;9.024;2023-02-21T08:26:11;96794.28;;;8.44;60.27
4012;BME280;2020;48.682;9.024;2023-02-21T08:28:37;96798.50;;;8.36;59.40
4012;BME280;2020;48.682;9.024;2023-02-21T08:31:02;96794.47;;;8.53;59.98
4012;BME280;2020;48.682;9.024;2023-02-21T08:33:28;96796.81;;;8.66;59.51
4012;BME280;2020;48.682;9.024;2023-02-21T08:35:53;96795.59;;;8.80;59.88
4012;BME280;2020;48.682;9.024;2023-02-21T08:38:18;96802.72;;;8.97;58.63
4012;BME280;2020;48.682;9.024;2023-02-21T08:40:44;96804.06;;;8.91;58.70
4012;BME280;2020;48.682;9.024;2023-02-21T08:43:09;96798.59;;;9.24;58.19
4012;BME280;2020;48.682;9.024;2023-02-21T08:45:35;96796.00;;;9.24;57.52
4012;BME280;2020;48.682;9.024;2023-02-21T08:48:00;96799.00;;;9.19;57.52
4012;BME280;2020;48.682;9.024;2023-02-21T08:50:27;96801.06;;;9.16;57.94
4012;BME280;2020;48.682;9.024;2023-02-21T08:52:52;96801.84;;;9.46;57.65
4012;BME280;2020;48.682;9.024;2023-02-21T08:55:18;96794.38;;;9.71;57.41
4012;BME280;2020;48.682;9.024;2023-02-21T08:57:44;96797.38;;;9.76;56.31
4012;BME280;2020;48.682;9.024;2023-02-21T09:00:11;96801.28;;;10.00;56.11
4012;BME280;2020;48.682;9.024;2023-02-21T09:02:37;96810.19;;;10.25;55.55
4012;BME280;2020;48.682;9.024;2023-02-21T09:05:12;96797.81;;;10.37;54.86
4012;BME280;2020;48.682;9.024;2023-02-21T09:07:38;96793.78;;;10.89;54.07
4012;BME280;2020;48.682;9.024;2023-02-21T09:10:04;96800.19;;;10.76;53.66
4012;BME280;2020;48.682;9.024;2023-02-21T09:12:30;96804.19;;;10.89;54.11
4012;BME280;2020;48.682;9.024;2023-02-21T09:14:56;96798.38;;;10.95;54.08
4012;BME280;2020;48.682;9.024;2023-02-21T09:17:21;96798.59;;;11.20;52.78
4012;BME280;2020;48.682;9.024;2023-02-21T09:19:46;96797.50;;;11.49;52.86
4012;BME280;2020;48.682;9.024;2023-02-21T09:22:11;96791.91;;;11.70;51.79
4012;BME280;2020;48.682;9.024;2023-02-21T09:24:37;96785.28;;;11.76;50.99
4012;BME280;2020;48.682;9.024;2023-02-21T09:27:04;96796.47;;;11.68;52.00
4012;BME280;2020;48.682;9.024;2023-02-21T09:29:31;96788.25;;;11.81;51.72
4012;BME280;2020;48.682;9.024;2023-02-21T09:31:57;96792.22;;;11.93;51.72
4012;BME280;2020;48.682;9.024;2023-02-21T09:34:23;96795.59;;;12.12;50.42
4012;BME280;2020;48.682;9.024;2023-02-21T09:36:48;96791.94;;;12.39;50.33
4012;BME280;2020;48.682;9.024;2023-02-21T09:39:19;96794.72;;;12.54;50.26
4012;BME280;2020;48.682;9.024;2023-02-21T09:41:46;96781.22;;;12.76;49.49
4012;BME280;2020;48.682;9.024;2023-02-21T09:44:21;96786.00;;;12.97;48.23
4012;BME280;2020;48.682;9.024;2023-02-21T09:47:06;96787.47;;;13.16;47.50
4012;BME280;2020;48.682;9.024;2023-02-21T09:49:38;96773.91;;;13.04;47.47
4012;BME280;2020;48.682;9.024;2023-02-21T09:52:05;96773.56;;;13.40;46.63
4012;BME280;2020;48.682;9.024;2023-02-21T09:54:34;96782.72;;;13.36;47.52
4012;BME280;2020;48.682;9.024;2023-02-21T09:57:03;96774.19;;;13.67;46.30
4012;BME280;2020;48.682;9.024;2023-02-21T09:59:29;96770.19;;;13.88;46.03
4012;BME280;2020;48.682;9.024;2023-02-21T10:07:26;96773.91;;;14.42;44.89
4012;BME280;2020;48.682;9.024;2023-02-21T10:10:10;96778.06;;;14.59;43.37
4012;BME280;2020;48.682;9.024;2023-02-21T10:12:53;96769.31;;;14.44;43.20
4012;BME280;2020;48.682;9.024;2023-02-21T10:16:00;96764.09;;;14.44;43.67
4012;BME280;2020;48.682;9.024;2023-02-21T10:18:51;96769.22;;;14.60;43.83
4012;BME280;2020;48.682;9.024;2023-02-21T10:21:27;96766.72;;;14.75;42.98
4012;BME280;2020;48.682;9.024;2023-02-21T10:23:53;96758.59;;;14.85;40.99
4012;BME280;2020;48.682;9.024;2023-02-21T10:26:27;96761.44;;;14.99;40.26
4012;BME280;2020;48.682;9.024;2023-02-21T10:28:53;96759.13;;;15.04;38.72
4012;BME280;2020;48.682;9.024;2023-02-21T10:31:29;96757.13;;;15.06;38.84
4012;BME280;2020;48.682;9.024;2023-02-21T10:33:56;96757.41;;;15.11;39.52
4012;BME280;2020;48.682;9.024;2023-02-21T10:36:24;96754.69;;;15.28;39.31
4012;BME280;2020;48.682;9.024;2023-02-21T10:39:14;96750.19;;;15.13;38.85
4012;BME280;2020;48.682;9.024;2023-02-21T10:41:41;96752.63;;;15.38;38.61
4012;BME280;2020;48.682;9.024;2023-02-21T10:44:10;96755.50;;;15.58;38.33
4012;BME280;2020;48.682;9.024;2023-02-21T10:47:03;96760.00;;;15.88;38.08
4012;BME280;2020;48.682;9.024;2023-02-21T10:52:16;96753.38;;;16.07;37.03
4012;BME280;2020;48.682;9.024;2023-02-21T10:54:59;96755.22;;;16.28;37.23
4012;BME280;2020;48.682;9.024;2023-02-21T10:57:25;96748.94;;;16.07;36.35
4012;BME280;2020;48.682;9.024;2023-02-21T10:59:51;96746.66;;;16.19;36.34
4012;BME280;2020;48.682;9.024;2023-02-21T11:04:54;96737.53;;;16.00;35.88
4012;BME280;2020;48.682;9.024;2023-02-21T11:07:20;96737.84;;;16.27;36.64
4012;BME280;2020;48.682;9.024;2023-02-21T11:09:47;96734.50;;;16.55;35.27
4012;BME280;2020;48.682;9.024;2023-02-21T11:17:20;96731.25;;;16.53;34.71
4012;BME280;2020;48.682;9.024;2023-02-21T11:19:56;96725.69;;;16.41;34.64
4012;BME280;2020;48.682;9.024;2023-02-21T11:22:26;96728.19;;;16.49;34.23
4012;BME280;2020;48.682;9.024;2023-02-21T11:27:36;96716.81;;;16.64;34.39
4012;BME280;2020;48.682;9.024;2023-02-21T11:30:17;96705.66;;;16.84;33.91
4012;BME280;2020;48.682;9.024;2023-02-21T11:32:49;96704.47;;;16.86;33.46
4012;BME280;2020;48.682;9.024;2023-02-21T11:40:43;96686.88;;;17.08;33.06
4012;BME280;2020;48.682;9.024;2023-02-21T11:43:29;96682.00;;;17.05;33.52
4012;BME280;2020;48.682;9.024;2023-02-21T11:51:34;96674.19;;;17.19;32.38
4012;BME280;2020;48.682;9.024;2023-02-21T11:54:03;96671.19;;;17.22;32.55
4012;BME280;2020;48.682;9.024;2023-02-21T11:56:48;96664.88;;;17.16;32.75
4012;BME280;2020;48.682;9.024;2023-02-21T12:10:57;96640.78;;;17.96;30.82
4012;BME280;2020;48.682;9.024;2023-02-21T12:13:49;96631.00;;;17.83;30.83
4012;BME280;2020;48.682;9.024;2023-02-21T12:24:45;96619.44;;;18.60;30.06
4012;BME280;2020;48.682;9.024;2023-02-21T12:27:32;96614.16;;;18.33;29.31
4012;BME280;2020;48.682;9.024;2023-02-21T12:35:34;96598.34;;;18.33;30.17
4012;BME280;2020;48.682;9.024;2023-02-21T12:46:26;96579.69;;;18.55;30.76
4012;BME280;2020;48.682;9.024;2023-02-21T12:49:04;96577.66;;;18.70;29.67
4012;BME280;2020;48.682;9.024;2023-02-21T12:54:37;96567.50;;;18.81;30.54
4012;BME280;2020;48.682;9.024;2023-02-21T12:57:10;96558.94;;;19.06;29.59
4012;BME280;2020;48.682;9.024;2023-02-21T13:00:03;96560.16;;;18.96;29.59
4012;BME280;2020;48.682;9.024;2023-02-21T13:03:03;96554.53;;;18.79;29.86
4012;BME280;2020;48.682;9.024;2023-02-21T13:05:39;96545.19;;;18.97;29.34
4012;BME280;2020;48.682;9.024;2023-02-21T13:08:15;96544.31;;;19.23;29.38
4012;BME280;2020;48.682;9.024;2023-02-21T13:11:05;96536.59;;;19.15;29.41
4012;BME280;2020;48.682;9.024;2023-02-21T13:13:32;96533.94;;;19.28;29.25
4012;BME280;2020;48.682;9.024;2023-02-21T13:16:01;96524.94;;;19.43;29.33
4012;BME280;2020;48.682;9.024;2023-02-21T13:18:49;96520.50;;;19.37;28.83
4012;BME280;2020;48.682;9.024;2023-02-21T13:25:09;96514.22;;;19.38;29.34
4012;BME280;2020;48.682;9.024;2023-02-21T13:27:53;96502.53;;;19.07;28.93
4012;BME280;2020;48.682;9.024;2023-02-21T13:30:22;96507.81;;;19.13;28.78
4012;BME280;2020;48.682;9.024;2023-02-21T13:32:52;96497.28;;;19.07;29.04
4012;BME280;2020;48.682;9.024;2023-02-21T13:35:21;96493.97;;;19.18;29.42
4012;BME280;2020;48.682;9.024;2023-02-21T13:37:50;96496.00;;;19.16;29.40
4012;BME280;2020;48.682;9.024;2023-02-21T13:40:20;96502.41;;;19.47;29.50
4012;BME280;2020;48.682;9.024;2023-02-21T13:43:09;96486.41;;;19.67;28.89
4012;BME280;2020;48.682;9.024;2023-02-21T13:45:35;96483.31;;;19.77;28.89
4012;BME280;2020;48.682;9.024;2023-02-21T13:53:23;96473.25;;;19.28;28.83
4012;BME280;2020;48.682;9.024;2023-02-21T13:58:35;96463.84;;;19.39;29.39
4012;BME280;2020;48.682;9.024;2023-02-21T14:07:10;96453.53;;;19.70;28.98
4012;BME280;2020;48.682;9.024;2023-02-21T14:09:39;96452.78;;;19.56;28.98
4012;BME280;2020;48.682;9.024;2023-02-21T14:12:05;96445.28;;;19.53;28.64
4012;BME280;2020;48.682;9.024;2023-02-21T14:14:34;96445.88;;;19.62;28.43
4012;BME280;2020;48.682;9.024;2023-02-21T14:17:09;96440.34;;;19.31;28.46
4012;BME280;2020;48.682;9.024;2023-02-21T14:24:36;96433.69;;;19.61;28.86
4012;BME280;2020;48.682;9.024;2023-02-21T14:27:29;96438.56;;;19.57;29.33
4012;BME280;2020;48.682;9.024;2023-02-21T14:32:40;96425.31;;;19.96;28.89
4012;BME280;2020;48.682;9.024;2023-02-21T14:38:05;96426.94;;;19.97;28.34
4012;BME280;2020;48.682;9.024;2023-02-21T14:40:41;96428.84;;;19.57;28.80
4012;BME280;2020;48.682;9.024;2023-02-21T14:43:28;96416.28;;;19.78;28.25
4012;BME280;2020;48.682;9.024;2023-02-21T14:48:55;96414.41;;;19.85;29.31
4012;BME280;2020;48.682;9.024;2023-02-21T14:56:48;96407.19;;;19.74;28.70
4012;BME280;2020;48.682;9.024;2023-02-21T14:59:30;96411.03;;;19.46;28.75
4012;BME280;2020;48.682;9.024;2023-02-21T15:04:50;96397.25;;;19.44;29.66
4012;BME280;2020;48.682;9.024;2023-02-21T15:07:23;96390.16;;;19.70;28.69
4012;BME280;2020;48.682;9.024;2023-02-21T15:10:10;96399.97;;;19.63;29.11
4012;BME280;2020;48.682;9.024;2023-02-21T15:12:49;96389.28;;;19.76;28.61
4012;BME280;2020;48.682;9.024;2023-02-21T15:15:34;96391.72;;;19.52;29.02
4012;BME280;2020;48.682;9.024;2023-02-21T15:18:01;96391.63;;;19.66;29.68
4012;BME280;2020;48.682;9.024;2023-02-21T15:20:27;96388.97;;;20.16;29.39
4012;BME280;2020;48.682;9.024;2023-02-21T15:23:11;96386.28;;;20.23;29.60
4012;BME280;2020;48.682;9.024;2023-02-21T15:25:37;96383.09;;;20.14;28.91
4012;BME280;2020;48.682;9.024;2023-02-21T15:28:06;96378.25;;;20.11;28.05
4012;BME280;2020;48.682;9.024;2023-02-21T15:31:01;96385.41;;;20.04;28.51
4012;BME280;2020;48.682;9.024;2023-02-21T15:33:31;96374.22;;;19.83;28.42
4012;BME280;2020;48.682;9.024;2023-02-21T15:35:59;96376.69;;;19.78;29.66
4012;BME280;2020;48.682;9.024;2023-02-21T15:38:48;96372.50;;;19.96;28.84
4012;BME280;2020;48.682;9.024;2023-02-21T15:41:19;96368.50;;;19.86;28.97
4012;BME280;2020;48.682;9.024;2023-02-21T15:44:09;96372.34;;;19.91;28.46
4012;BME280;2020;48.682;9.024;2023-02-21T15:46:56;96353.00;;;19.46;29.49
4012;BME280;2020;48.682;9.024;2023-02-21T15:49:29;96367.97;;;19.52;29.78
4012;BME280;2020;48.682;9.024;2023-02-21T15:51:55;96365.38;;;19.71;29.89
4012;BME280;2020;48.682;9.024;2023-02-21T15:54:24;96362.44;;;19.54;30.51
4012;BME280;2020;48.682;9.024;2023-02-21T15:59:26;96365.09;;;19.54;30.76
4012;BME280;2020;48.682;9.024;2023-02-21T16:04:48;96361.59;;;19.35;31.05
4012;BME280;2020;48.682;9.024;2023-02-21T16:07:17;96364.19;;;19.03;31.67
4012;BME280;2020;48.682;9.024;2023-02-21T16:09:47;96359.47;;;18.73;31.97